Time;durP1;ratioP1;P1;durP2;ratioP2;P2;SDS_P1;SDS_P2;PMS_P1;PMS_P2;Temp;Humidity;BMP_temperature;BMP_pressure;BME280_temperature;BME280_humidity;BME280_pressure;Samples;Min_cycle;Max_cycle;Signal;HPM_P1;HPM_P2
2021/03/11 00:00:49;;;;;;;;;;;2.70;99.90;;;1.53;77.41;95494.16;10319279;28;1986;-83
2021/03/11 00:05:51;;;;;;;;;;;2.70;99.90;;;1.56;77.02;95488.41;10335752;28;1979;-84
2021/03/11 00:10:52;;;;;;;;;;;3.80;99.90;;;1.57;77.70;95484.69;10331200;28;1677;-84
2021/03/11 00:15:54;;;;;;;;;;;2.70;99.90;;;1.57;77.61;95487.34;10322832;28;1987;-83
2021/03/11 00:20:56;;;;;;;;;;;2.80;99.90;;;1.59;77.35;95480.00;10326665;28;1858;-84
2021/03/11 00:26:07;;;;;;;;;;;3.40;99.90;;;1.66;76.55;95471.16;10329476;28;2019;-82
2021/03/11 00:31:09;;;;;;;;;;;2.80;99.90;;;1.69;75.62;95473.34;10347922;28;1916;-83
2021/03/11 00:36:10;;;;;;;;;;;3.70;99.90;;;1.76;74.69;95476.72;10346373;28;1987;-84
2021/03/11 00:41:12;;;;;;;;;;;4.00;99.90;;;1.76;74.11;95469.56;10348335;28;1920;-82
2021/03/11 00:46:14;;;;;;;;;;;4.10;99.90;;;1.72;74.57;95467.59;10322162;28;2055;-84
2021/03/11 00:51:16;;;;;;;;;;;5.00;99.90;;;1.66;75.72;95464.03;10319700;28;1603;-85
2021/03/11 00:56:28;;;;;;;;;;;2.80;99.90;;;1.66;75.29;95455.28;10330918;28;1886;-84
2021/03/11 01:01:30;;;;;;;;;;;4.30;99.90;;;1.72;74.90;95446.38;10295619;28;2095;-83
2021/03/11 01:06:32;;;;;;;;;;;2.80;99.90;;;1.78;74.32;95437.53;10327023;28;1799;-84
2021/03/11 01:11:34;;;;;;;;;;;4.50;99.90;;;1.77;73.03;95443.88;10333064;28;2054;-84
2021/03/11 01:16:36;;;;;;;;;;;4.50;99.90;;;1.82;72.43;95439.50;10312748;28;1998;-83
2021/03/11 01:21:38;;;;;;;;;;;3.80;99.90;;;1.82;72.28;95428.09;10334924;28;2022;-82
2021/03/11 01:26:50;;;;;;;;;;;2.90;99.90;;;1.81;72.41;95429.16;10327684;28;1805;-82
2021/03/11 01:31:52;;;;;;;;;;;4.00;99.90;;;1.80;71.71;95428.34;10320353;28;1991;-83
2021/03/11 01:36:54;;;;;;;;;;;2.90;99.90;;;1.78;72.21;95432.22;10308680;28;2186;-83
2021/03/11 01:41:55;;;;;;;;;;;3.20;99.90;;;1.77;71.45;95417.38;10319328;28;2049;-84
2021/03/11 01:46:57;;;;;;;;;;;2.90;99.90;;;1.78;72.44;95416.34;10308848;28;1648;-85
2021/03/11 01:51:59;;;;;;;;;;;3.60;99.90;;;1.85;71.81;95412.56;10307361;28;1803;-84
2021/03/11 01:57:12;;;;;;;;;;;2.90;99.90;;;1.99;71.48;95399.91;10309704;28;2137;-84
2021/03/11 02:02:13;;;;;;;;;;;3.80;99.90;;;2.05;71.62;95393.69;10319119;28;2037;-82
2021/03/11 02:07:15;;;;;;;;;;;3.00;99.90;;;2.09;71.44;95409.94;10355198;28;1837;-81
2021/03/11 02:12:17;;;;;;;;;;;3.10;99.90;;;2.13;70.20;95411.09;10346896;28;1919;-82
2021/03/11 02:17:19;;;;;;;;;;;3.10;99.90;;;2.19;69.74;95388.16;10325418;28;1962;-82
2021/03/11 02:22:21;;;;;;;;;;;3.20;99.90;;;2.31;69.46;95381.03;10323870;28;1830;-82
2021/03/11 02:27:34;;;;;;;;;;;3.90;99.90;;;2.42;68.71;95357.16;10329543;28;1873;-84
2021/03/11 02:32:36;;;;;;;;;;;5.30;99.90;;;2.42;68.35;95330.63;10320896;28;2034;-84
2021/03/11 02:37:38;;;;;;;;;;;4.00;99.90;;;2.49;67.39;95303.16;10328243;28;1922;-83
2021/03/11 02:42:39;;;;;;;;;;;3.50;99.90;;;2.53;67.72;95326.31;10347361;28;1995;-83
2021/03/11 02:47:41;;;;;;;;;;;3.50;99.90;;;2.63;66.92;95307.97;10352312;28;2117;-83
2021/03/11 02:52:43;;;;;;;;;;;3.60;99.90;;;2.75;65.97;95301.81;10305521;28;2108;-85
2021/03/11 02:57:55;;;;;;;;;;;3.70;99.90;;;2.82;65.49;95305.94;10321671;28;1914;-84
2021/03/11 03:02:56;;;;;;;;;;;4.60;99.90;;;2.86;65.34;95283.19;10314444;28;1903;-84
2021/03/11 03:07:58;;;;;;;;;;;5.40;99.90;;;2.91;65.75;95293.09;10324957;28;1920;-84
2021/03/11 03:13:00;;;;;;;;;;;4.60;99.90;;;3.01;64.36;95284.53;10289047;28;2185;-83
2021/03/11 03:18:02;;;;;;;;;;;4.00;99.90;;;3.14;61.86;95263.78;10296383;28;2039;-83
2021/03/11 03:23:04;;;;;;;;;;;4.10;99.90;;;3.23;64.07;95241.06;10298891;28;2076;-84
2021/03/11 03:28:17;;;;;;;;;;;4.20;99.90;;;3.51;60.11;95212.84;10314163;28;2052;-83
2021/03/11 03:33:19;;;;;;;;;;;5.20;99.90;;;4.01;54.96;95226.06;10304700;28;2163;-84
2021/03/11 03:38:21;;;;;;;;;;;5.70;99.90;;;4.32;53.67;95207.81;10306506;28;2108;-83
2021/03/11 03:43:23;;;;;;;;;;;5.60;98.80;;;4.93;50.56;95199.69;10322303;28;2385;-85
2021/03/11 03:48:24;;;;;;;;;;;5.60;92.80;;;5.30;48.98;95211.22;10327174;28;2099;-84
2021/03/11 03:53:26;;;;;;;;;;;6.60;89.60;;;5.36;48.94;95209.41;10318588;28;2528;-84
2021/03/11 03:58:41;;;;;;;;;;;6.20;87.20;;;5.41;48.26;95194.25;10326344;28;2200;-84
2021/03/11 04:03:42;;;;;;;;;;;6.40;85.30;;;5.45;48.95;95180.41;10328085;28;2368;-84
2021/03/11 04:08:44;;;;;;;;;;;6.40;84.20;;;5.34;49.58;95163.53;10315473;28;1870;-83
2021/03/11 04:13:46;;;;;;;;;;;6.40;84.00;;;5.28;50.18;95159.22;10328369;28;2291;-83
2021/03/11 04:18:48;;;;;;;;;;;7.30;84.60;;;5.31;49.83;95142.72;10315727;28;2016;-84
2021/03/11 04:23:50;;;;;;;;;;;6.30;84.10;;;5.39;49.38;95105.75;10306080;28;2069;-83
2021/03/11 04:29:01;;;;;;;;;;;6.30;83.20;;;5.41;48.76;95132.16;10301388;28;2135;-84
2021/03/11 04:34:03;;;;;;;;;;;6.40;81.90;;;5.40;49.81;95115.34;10314919;28;2064;-83
2021/03/11 04:39:05;;;;;;;;;;;6.40;82.30;;;5.34;50.87;95116.38;10321131;28;2131;-83
2021/03/11 04:44:07;;;;;;;;;;;7.10;82.90;;;5.41;49.98;95106.31;10304502;28;2072;-83
2021/03/11 04:49:08;;;;;;;;;;;6.40;81.80;;;5.36;50.25;95098.28;10319477;28;2040;-84
2021/03/11 04:54:10;;;;;;;;;;;6.30;81.60;;;5.33;51.02;95087.31;10328258;28;2105;-85
2021/03/11 04:59:27;;;;;;;;;;;6.30;81.90;;;5.35;51.25;95098.53;10319779;28;2139;-84
2021/03/11 05:04:29;;;;;;;;;;;6.30;82.50;;;5.36;50.21;95089.47;10346855;28;2043;-83
2021/03/11 05:09:31;;;;;;;;;;;6.40;81.10;;;5.37;50.44;95089.22;10343361;28;2083;-83
2021/03/11 05:14:33;;;;;;;;;;;6.40;81.30;;;5.34;50.31;95089.75;10328942;28;2020;-83
2021/03/11 05:19:34;;;;;;;;;;;6.70;80.80;;;5.33;49.52;95093.44;10340926;28;2152;-85
2021/03/11 05:24:36;;;;;;;;;;;6.40;80.30;;;5.34;49.81;95089.75;10326987;28;1921;-84
2021/03/11 05:29:48;;;;;;;;;;;6.40;80.40;;;5.33;50.49;95103.28;10328576;28;2112;-84
2021/03/11 05:34:50;;;;;;;;;;;7.10;81.00;;;5.36;49.86;95087.59;10313643;28;2132;-84
2021/03/11 05:39:52;;;;;;;;;;;6.80;80.30;;;5.35;50.43;95086.00;10316345;28;2114;-84
2021/03/11 05:44:54;;;;;;;;;;;6.30;80.80;;;5.36;51.56;95082.28;10333800;28;1972;-83
2021/03/11 05:49:56;;;;;;;;;;;6.30;81.00;;;5.33;51.28;95082.78;10323928;28;2056;-83
2021/03/11 05:54:58;;;;;;;;;;;6.40;80.80;;;5.30;52.56;95075.31;10304250;28;2088;-83
2021/03/11 06:00:14;;;;;;;;;;;6.30;81.70;;;5.36;50.73;95079.63;10305000;28;2155;-84
2021/03/11 06:05:19;;;;;;;;;;;6.30;80.90;;;5.33;51.99;95077.44;10313650;28;2170;-84
2021/03/11 06:10:20;;;;;;;;;;;6.30;81.30;;;5.37;52.20;95099.88;10293148;28;2195;-84
2021/03/11 06:15:23;;;;;;;;;;;7.80;82.30;;;5.51;50.65;95104.75;10330729;28;1891;-83
2021/03/11 06:20:24;;;;;;;;;;;6.40;81.40;;;5.46;52.16;95107.38;10333433;28;2060;-85
2021/03/11 06:25:27;;;;;;;;;;;6.40;81.60;;;5.56;51.65;95102.13;10316801;28;2056;-83
2021/03/11 06:30:34;;;;;;;;;;;6.50;81.40;;;5.61;53.14;95094.16;10310671;28;2027;-84
2021/03/11 06:35:38;;;;;;;;;;;6.60;82.50;;;5.62;55.50;95098.41;10308486;28;2665;-85
2021/03/11 06:40:39;;;;;;;;;;;6.60;85.10;;;5.45;61.50;95089.78;10324377;28;2017;-81
2021/03/11 06:45:41;;;;;;;;;;;6.50;89.00;;;5.24;63.43;95087.00;10303555;28;1933;-82
2021/03/11 06:50:43;;;;;;;;;;;6.40;92.70;;;5.19;65.79;95086.97;10310873;28;2101;-82
2021/03/11 06:55:46;;;;;;;;;;;6.30;95.20;;;5.24;66.28;95087.00;10331360;28;2029;-81
2021/03/11 07:00:57;;;;;;;;;;;6.30;97.00;;;5.34;66.35;95095.06;10318216;28;2012;-81
2021/03/11 07:05:59;;;;;;;;;;;6.30;97.50;;;5.40;65.26;95087.88;10317841;28;2114;-82
2021/03/11 07:11:00;;;;;;;;;;;6.40;97.40;;;5.50;66.09;95092.47;10296092;28;1821;-83
2021/03/11 07:16:02;;;;;;;;;;;7.10;99.10;;;5.64;63.98;95085.63;10299746;28;1998;-81
2021/03/11 07:21:04;;;;;;;;;;;6.80;96.80;;;5.89;63.91;95093.75;10326500;28;2128;-81
2021/03/11 07:26:06;;;;;;;;;;;7.10;97.60;;;6.06;62.92;95095.44;10315947;28;2018;-82
2021/03/11 07:31:19;;;;;;;;;;;7.00;96.30;;;6.38;61.31;95112.09;10314907;28;2014;-82
2021/03/11 07:36:20;;;;;;;;;;;7.20;95.40;;;6.57;60.47;95114.28;10322356;28;2179;-82
2021/03/11 07:41:23;;;;;;;;;;;7.40;94.20;;;6.72;59.04;95104.41;10316332;28;2005;-85
2021/03/11 07:46:28;;;;;;;;;;;8.30;94.00;;;6.95;55.54;95094.28;10321654;28;1968;-82
2021/03/11 07:51:31;;;;;;;;;;;7.80;90.10;;;7.01;58.85;95086.00;10297990;28;1551;-82
2021/03/11 07:56:32;;;;;;;;;;;8.00;92.30;;;6.99;59.69;95074.75;10335553;28;2022;-83
2021/03/11 08:01:45;;;;;;;;;;;7.90;91.80;;;6.99;59.48;95074.75;10333377;28;1661;-80
2021/03/11 08:06:47;;;;;;;;;;;8.00;92.10;;;7.05;59.02;95054.19;10351042;28;1689;-80
2021/03/11 08:11:49;;;;;;;;;;;8.00;91.60;;;7.37;58.26;95045.84;10344166;28;1298;-80
2021/03/11 08:16:51;;;;;;;;;;;8.20;91.60;;;7.76;58.06;95059.41;10346613;28;1883;-81
2021/03/11 08:21:54;;;;;;;;;;;8.50;91.50;;;7.86;56.78;95058.56;10325171;28;1888;-80
2021/03/11 08:26:56;;;;;;;;;;;8.90;90.60;;;8.28;55.95;95049.28;10340330;28;2211;-85
2021/03/11 08:32:07;;;;;;;;;;;8.90;90.40;;;8.69;53.02;95041.78;10307760;28;1908;-83
2021/03/11 08:37:10;;;;;;;;;;;10.30;87.90;;;8.95;56.45;95047.75;10309089;28;1963;-80
2021/03/11 08:42:11;;;;;;;;;;;9.60;89.70;;;9.14;53.32;95037.13;10311835;28;2049;-80
2021/03/11 08:47:13;;;;;;;;;;;10.60;87.50;;;9.30;53.09;95025.19;10305715;28;2057;-80
2021/03/11 08:52:24;;;;;;;;;;;10.10;86.40;;;9.37;54.06;95030.22;10289165;28;2257;-84
2021/03/11 08:57:26;;;;;;;;;;;10.20;86.80;;;9.41;53.40;95012.47;10314254;28;2029;-82
2021/03/11 09:02:29;;;;;;;;;;;10.30;86.40;;;9.49;54.19;95009.19;10319305;28;2163;-83
2021/03/11 09:07:32;;;;;;;;;;;10.30;86.90;;;9.51;53.58;94996.28;10294835;28;2068;-82
2021/03/11 09:12:35;;;;;;;;;;;10.50;86.40;;;9.71;54.83;94989.88;10295886;28;1795;-79
2021/03/11 09:17:41;;;;;;;;;;;10.60;87.20;;;9.83;54.61;94992.16;10303731;28;2049;-82
2021/03/11 09:22:43;;;;;;;;;;;10.70;86.90;;;9.89;54.50;94980.25;10306346;28;1998;-81
2021/03/11 09:27:46;;;;;;;;;;;;;;;10.05;53.86;94976.28;10288772;28;2181;-80
2021/03/11 09:33:02;;;;;;;;;;;10.90;85.70;;;10.21;52.14;94966.94;10301390;28;2181;-81
2021/03/11 09:38:04;;;;;;;;;;;11.10;84.10;;;10.39;51.09;94968.03;10289112;28;2053;-81
2021/03/11 09:43:06;;;;;;;;;;;11.30;82.80;;;10.56;50.74;94962.16;10294568;28;2049;-82
2021/03/11 09:48:08;;;;;;;;;;;11.50;82.00;;;10.73;50.22;94957.03;10303252;28;2040;-82
2021/03/11 09:53:10;;;;;;;;;;;11.60;81.00;;;10.87;48.06;94946.28;10284261;28;2089;-80
2021/03/11 09:58:12;;;;;;;;;;;11.80;79.20;;;11.07;47.31;94937.91;10291828;28;2057;-81
2021/03/11 10:03:18;;;;;;;;;;;11.90;77.70;;;11.26;47.79;94940.50;10302971;28;2126;-82
2021/03/11 10:08:20;;;;;;;;;;;12.10;78.10;;;11.46;47.46;94933.94;10293293;28;1925;-80
2021/03/11 10:13:22;;;;;;;;;;;12.30;77.00;;;11.73;46.68;94908.88;10309947;28;2141;-81
2021/03/11 10:18:25;;;;;;;;;;;12.70;75.20;;;11.96;46.09;94935.88;10302708;28;1965;-80
2021/03/11 10:23:27;;;;;;;;;;;13.00;74.50;;;12.32;45.24;94917.03;10318670;28;1908;-81
2021/03/11 10:28:29;;;;;;;;;;;13.10;74.30;;;12.40;44.57;94922.50;10299054;28;1940;-80
2021/03/11 10:33:40;;;;;;;;;;;13.30;73.70;;;12.52;44.12;94913.06;10303916;28;2351;-79
2021/03/11 10:38:43;;;;;;;;;;;;;;;12.91;43.68;94875.41;10298372;28;2165;-81
2021/03/11 10:43:45;;;;;;;;;;;13.80;72.30;;;13.13;43.08;94889.97;10315924;28;2317;-81
2021/03/11 10:48:47;;;;;;;;;;;13.90;72.10;;;13.27;44.15;94871.78;10281138;28;2015;-79
2021/03/11 10:53:49;;;;;;;;;;;14.10;72.60;;;13.11;44.24;94866.00;10309526;28;1912;-80
2021/03/11 10:58:51;;;;;;;;;;;14.10;71.50;;;13.34;43.54;94845.13;10312589;28;2013;-79
2021/03/11 11:04:04;;;;;;;;;;;14.20;71.10;;;13.42;43.77;94849.78;10320642;28;2064;-79
2021/03/11 11:09:05;;;;;;;;;;;14.40;71.10;;;13.65;43.46;94836.16;10321847;28;2162;-83
2021/03/11 11:14:07;;;;;;;;;;;14.50;70.80;;;13.84;43.54;94843.97;10331324;28;2006;-81
2021/03/11 11:19:09;;;;;;;;;;;14.70;71.00;;;14.25;43.09;94829.97;10324685;28;1984;-81
2021/03/11 11:24:11;;;;;;;;;;;15.00;70.60;;;14.40;42.57;94839.50;10331426;28;1997;-80
2021/03/11 11:29:13;;;;;;;;;;;15.20;69.70;;;14.71;41.98;94839.31;10311574;28;2054;-81
2021/03/11 11:34:20;;;;;;;;;;;15.50;69.20;;;15.18;40.63;94810.34;10317095;28;1832;-86
2021/03/11 11:39:22;;;;;;;;;;;16.00;67.70;;;15.10;41.42;94830.13;10306038;28;2034;-79
2021/03/11 11:44:24;;;;;;;;;;;16.00;67.90;;;14.89;42.62;94819.22;10304499;28;2048;-82
2021/03/11 11:49:26;;;;;;;;;;;16.00;68.30;;;15.01;42.67;94813.09;10319485;28;2072;-83
2021/03/11 11:54:28;;;;;;;;;;;16.00;68.50;;;15.01;43.24;94773.31;10318777;28;1961;-84
2021/03/11 11:59:29;;;;;;;;;;;16.00;69.10;;;14.95;44.45;94790.06;10320015;28;2046;-84
2021/03/11 12:04:42;;;;;;;;;;;15.90;70.30;;;15.14;44.35;94809.38;10313080;28;1762;-84
2021/03/11 12:09:45;;;;;;;;;;;16.00;70.70;;;15.13;44.54;94816.72;10326387;28;1982;-82
2021/03/11 12:14:47;;;;;;;;;;;16.10;70.60;;;15.41;43.88;94791.91;10314836;28;2011;-84
2021/03/11 12:19:49;;;;;;;;;;;16.20;70.40;;;15.53;43.64;94808.25;10317190;28;2107;-82
2021/03/11 12:24:51;;;;;;;;;;;16.40;69.80;;;15.58;43.28;94786.38;10325438;28;2034;-83
2021/03/11 12:29:54;;;;;;;;;;;16.50;69.40;;;15.56;43.22;94793.25;10334871;28;2094;-82
2021/03/11 12:35:11;;;;;;;;;;;16.50;69.00;;;15.42;43.59;94793.50;10328138;28;2250;-83
2021/03/11 12:40:13;;;;;;;;;;;16.40;69.00;;;15.54;42.99;94776.53;10315578;28;2049;-85
2021/03/11 12:45:15;;;;;;;;;;;16.50;68.60;;;15.83;42.84;94781.91;10307640;28;2324;-84
2021/03/11 12:50:17;;;;;;;;;;;16.60;68.60;;;15.54;43.58;94785.44;10310780;28;2047;-84
2021/03/11 12:55:20;;;;;;;;;;;16.60;68.50;;;15.55;43.05;94746.41;10287556;28;1990;-84
2021/03/11 13:00:22;;;;;;;;;;;16.50;68.20;;;15.52;43.42;94733.50;10302857;28;2023;-81
2021/03/11 13:05:37;;;;;;;;;;;16.50;68.30;;;15.65;43.10;94713.53;10329022;28;2006;-82
2021/03/11 13:10:39;;;;;;;;;;;16.60;68.20;;;15.74;42.86;94723.50;10312223;28;2058;-82
2021/03/11 13:15:41;;;;;;;;;;;16.60;68.00;;;15.88;42.83;94710.47;10314630;28;1971;-82
2021/03/11 13:20:45;;;;;;;;;;;16.80;67.90;;;15.98;42.15;94718.19;10301530;28;1950;-84
2021/03/11 13:25:47;;;;;;;;;;;16.90;67.10;;;16.19;42.13;94710.03;10309587;28;2064;-83
2021/03/11 13:30:51;;;;;;;;;;;17.00;67.00;;;16.08;41.72;94689.88;10321713;28;2065;-84
2021/03/11 13:35:59;;;;;;;;;;;17.00;66.70;;;16.21;41.81;94669.78;10325233;28;1953;-86
2021/03/11 13:41:01;;;;;;;;;;;17.00;66.70;;;16.26;41.43;94690.50;10317186;28;2289;-82
2021/03/11 13:46:02;;;;;;;;;;;17.20;66.00;;;16.01;41.46;94679.56;10300069;28;2287;-82
2021/03/11 13:51:04;;;;;;;;;;;17.10;65.70;;;15.93;42.18;94689.38;10335731;28;1669;-83
2021/03/11 13:56:06;;;;;;;;;;;16.90;66.30;;;15.64;42.84;94686.75;10319567;28;2137;-84
2021/03/11 14:01:08;;;;;;;;;;;16.80;66.70;;;15.57;42.56;94689.97;10338810;28;2182;-82
2021/03/11 14:06:24;;;;;;;;;;;16.60;66.70;;;15.39;42.76;94664.94;10346646;28;1932;-82
2021/03/11 14:11:26;;;;;;;;;;;16.40;66.80;;;15.44;43.05;94677.50;10332342;28;1630;-82
2021/03/11 14:16:28;;;;;;;;;;;16.30;67.40;;;15.55;43.15;94654.31;10338790;28;1883;-85
2021/03/11 14:21:30;;;;;;;;;;;16.50;67.10;;;15.42;43.72;94663.50;10323616;28;2031;-84
2021/03/11 14:26:31;;;;;;;;;;;16.30;67.60;;;15.62;43.34;94678.19;10327939;28;1713;-85
2021/03/11 14:31:33;;;;;;;;;;;16.50;67.70;;;15.47;43.86;94648.97;10361707;28;1737;-82
2021/03/11 14:36:49;;;;;;;;;;;16.50;67.60;;;15.14;44.67;94666.75;10350260;28;1957;-83
2021/03/11 14:41:51;;;;;;;;;;;16.20;68.20;;;15.33;44.56;94650.06;10292328;28;1913;-85
2021/03/11 14:46:53;;;;;;;;;;;16.10;69.10;;;15.26;44.91;94640.84;10312174;28;1873;-83
2021/03/11 14:51:59;;;;;;;;;;;16.10;69.30;;;15.47;45.22;94649.78;10304478;28;2017;-83
2021/03/11 14:57:01;;;;;;;;;;;16.30;69.70;;;15.40;45.91;94635.97;10291475;28;1978;-85
2021/03/11 15:02:03;;;;;;;;;;;16.30;69.80;;;15.43;47.11;94627.19;10302653;28;1734;-84
2021/03/11 15:07:13;;;;;;;;;;;16.30;70.90;;;15.33;47.48;94603.19;10294854;28;2179;-84
2021/03/11 15:12:15;;;;;;;;;;;16.30;71.20;;;15.57;45.22;94600.59;10300021;28;1479;-81
2021/03/11 15:17:17;;;;;;;;;;;16.40;69.90;;;15.30;45.99;94596.53;10309280;28;1996;-83
2021/03/11 15:22:19;;;;;;;;;;;16.30;70.00;;;15.30;45.89;94588.41;10308077;28;2048;-83
2021/03/11 15:27:22;;;;;;;;;;;16.20;70.20;;;15.00;46.97;94576.88;10294299;28;2001;-83
2021/03/11 15:32:23;;;;;;;;;;;16.10;70.80;;;14.63;47.54;94589.38;10295993;28;1619;-84
2021/03/11 15:37:38;;;;;;;;;;;15.80;70.90;;;14.36;49.88;94590.63;10306168;28;1937;-85
2021/03/11 15:42:40;;;;;;;;;;;15.60;73.00;;;14.23;49.34;94578.13;10308941;28;2300;-85
2021/03/11 15:47:42;;;;;;;;;;;15.30;73.20;;;14.29;48.94;94558.69;10342994;28;2006;-85
2021/03/11 15:52:46;;;;;;;;;;;15.20;73.10;;;14.29;49.19;94547.09;10308730;28;1968;-86
2021/03/11 15:57:54;;;;;;;;;;;15.20;73.20;;;14.26;49.35;94550.47;10308824;28;2059;-86
2021/03/11 16:03:06;;;;;;;;;;;15.20;73.40;;;14.14;49.78;94555.78;10307688;28;1791;-86
2021/03/11 16:08:13;;;;;;;;;;;15.10;73.80;;;14.07;50.24;94538.16;10327314;28;1965;-85
2021/03/11 16:13:15;;;;;;;;;;;15.10;74.20;;;13.98;50.71;94525.78;10335916;28;2300;-85
2021/03/11 16:18:17;;;;;;;;;;;15.00;74.20;;;13.89;50.69;94539.34;10311647;28;2156;-85
2021/03/11 16:23:20;;;;;;;;;;;14.90;74.60;;;13.88;50.35;94520.78;10330243;28;1881;-86
2021/03/11 16:28:22;;;;;;;;;;;14.90;74.70;;;13.83;51.06;94531.75;10325843;28;1979;-87
2021/03/11 16:33:24;;;;;;;;;;;14.80;75.00;;;13.80;51.24;94535.88;10326627;28;2065;-87
2021/03/11 16:38:29;;;;;;;;;;;14.80;75.20;;;13.76;50.98;94518.75;10331033;28;1958;-85
2021/03/11 16:43:31;;;;;;;;;;;14.80;75.30;;;13.62;51.45;94526.28;10335889;28;2219;-86
2021/03/11 16:48:36;;;;;;;;;;;14.70;75.30;;;13.62;51.31;94523.56;10338881;28;1747;-85
2021/03/11 16:53:39;;;;;;;;;;;14.60;75.50;;;13.56;51.50;94531.06;10320362;28;1825;-86
2021/03/11 16:58:41;;;;;;;;;;;14.50;75.60;;;13.41;53.88;94532.34;10322654;28;1912;-84
2021/03/11 17:03:43;;;;;;;;;;;14.50;77.80;;;12.86;58.31;94546.50;10316260;28;2007;-85
2021/03/11 17:08:52;;;;;;;;;;;14.10;81.50;;;12.42;63.15;94542.19;10293035;28;1980;-88
2021/03/11 17:13:54;;;;;;;;;;;13.70;86.30;;;11.86;66.43;94552.66;10325411;28;2062;-88
2021/03/11 17:18:56;;;;;;;;;;;13.10;89.80;;;11.58;66.48;94572.78;10298974;28;2169;-86
2021/03/11 17:23:57;;;;;;;;;;;12.80;90.60;;;11.51;65.36;94580.47;10335211;28;1741;-87
2021/03/11 17:28:59;;;;;;;;;;;12.60;91.10;;;11.48;65.82;94600.72;10312038;28;2193;-86
2021/03/11 17:34:03;;;;;;;;;;;12.50;91.30;;;11.64;63.80;94606.50;10317387;28;1638;-86
2021/03/11 17:39:13;;;;;;;;;;;12.60;89.70;;;11.52;65.88;94633.22;10307399;28;2137;-85
2021/03/11 17:44:30;;;;;;;;;;;12.50;91.30;;;11.50;65.40;94621.94;10319349;28;1565;-86
2021/03/11 17:49:32;;;;;;;;;;;12.50;91.50;;;11.35;66.86;94650.81;10325366;28;1963;-87
2021/03/11 17:54:35;;;;;;;;;;;12.40;92.30;;;11.20;67.97;94651.19;10311494;28;2042;-87
2021/03/11 17:59:38;;;;;;;;;;;12.40;94.30;;;10.96;70.92;94675.66;10305960;28;2018;-87
2021/03/11 18:04:40;;;;;;;;;;;12.10;96.90;;;10.65;74.03;94683.56;10305351;28;2022;-84
2021/03/11 18:09:43;;;;;;;;;;;11.80;99.90;;;10.43;76.10;94726.44;10307312;28;2027;-84
2021/03/11 18:14:45;;;;;;;;;;;11.50;99.90;;;9.57;82.38;94718.78;10316739;28;1901;-86
2021/03/11 18:19:48;;;;;;;;;;;10.90;99.90;;;9.12;84.53;94715.69;10295931;28;1993;-86
2021/03/11 18:24:51;;;;;;;;;;;10.40;99.90;;;8.82;86.27;94721.47;10312238;28;2005;-86
2021/03/11 18:29:53;;;;;;;;;;;10.00;99.90;;;8.57;87.56;94742.13;10310663;28;2044;-84
2021/03/11 18:34:56;;;;;;;;;;;9.70;99.90;;;8.44;88.05;94737.44;10316214;28;2121;-85
2021/03/11 18:39:58;;;;;;;;;;;9.50;99.90;;;8.42;88.29;94739.63;10316652;28;2063;-85
2021/03/11 18:45:01;;;;;;;;;;;9.40;99.90;;;8.36;89.79;94748.78;10332510;28;1694;-86
2021/03/11 18:50:03;;;;;;;;;;;9.40;99.90;;;8.32;90.05;94747.72;10322737;28;2009;-84
2021/03/11 18:55:05;;;;;;;;;;;9.40;99.90;;;8.24;90.68;94745.69;10322058;28;1972;-85
2021/03/11 19:00:07;;;;;;;;;;;9.30;99.90;;;8.23;90.34;94746.75;10289514;28;2126;-86
2021/03/11 19:05:08;;;;;;;;;;;9.20;99.90;;;8.21;90.95;94746.25;10319510;28;2014;-85
2021/03/11 19:10:20;;;;;;;;;;;9.20;99.90;;;8.19;90.44;94737.69;10311399;28;1963;-86
2021/03/11 19:15:23;;;;;;;;;;;9.20;99.90;;;8.16;90.54;94748.97;10314124;28;1991;-83
2021/03/11 19:20:25;;;;;;;;;;;9.20;99.90;;;8.08;90.53;94745.84;10300544;28;2015;-86
2021/03/11 19:25:28;;;;;;;;;;;9.10;99.90;;;8.01;92.48;94741.88;10327947;28;1960;-88
2021/03/11 19:30:31;;;;;;;;;;;9.00;99.90;;;7.96;92.87;94756.13;10319103;28;2061;-88
2021/03/11 19:35:34;;;;;;;;;;;8.90;99.90;;;7.91;92.13;94769.53;10289544;28;2060;-88
2021/03/11 19:40:46;;;;;;;;;;;9.40;99.90;;;7.75;92.22;94743.97;10309026;28;2428;-85
2021/03/11 19:45:48;;;;;;;;;;;8.80;99.90;;;7.68;92.58;94741.63;10327856;28;1982;-83
2021/03/11 19:50:50;;;;;;;;;;;9.30;99.90;;;7.59;91.35;94732.63;10306133;28;2148;-85
2021/03/11 19:55:53;;;;;;;;;;;8.50;99.90;;;7.49;92.53;94756.75;10301245;28;2060;-84
2021/03/11 20:00:56;;;;;;;;;;;9.40;99.90;;;7.45;93.45;94734.34;10333212;28;1891;-85
2021/03/11 20:05:59;;;;;;;;;;;8.40;99.90;;;7.45;93.68;94759.22;10311230;28;1964;-87
2021/03/11 20:11:09;;;;;;;;;;;8.90;99.90;;;7.44;93.78;94719.34;10305321;28;2073;-84
2021/03/11 20:16:12;;;;;;;;;;;8.40;99.90;;;7.40;92.73;94719.13;10312186;28;2054;-84
2021/03/11 20:21:15;;;;;;;;;;;8.40;99.90;;;7.41;91.70;94734.09;10338651;28;2002;-84
2021/03/11 20:26:18;;;;;;;;;;;8.30;99.90;;;7.47;90.07;94682.16;10348267;28;1967;-84
2021/03/11 20:31:20;;;;;;;;;;;8.30;99.90;;;7.46;89.04;94734.06;10356148;28;1387;-85
2021/03/11 20:36:22;;;;;;;;;;;8.30;99.90;;;7.52;86.85;94721.44;10336315;28;1914;-84
2021/03/11 20:41:37;;;;;;;;;;;8.40;99.90;;;7.49;86.61;94754.09;10315356;28;2079;-86
2021/03/11 20:46:43;;;;;;;;;;;8.40;99.90;;;7.47;86.67;94778.44;10310387;28;2155;-86
2021/03/11 20:51:45;;;;;;;;;;;8.90;99.90;;;7.55;85.47;94779.72;10329105;28;1944;-86
2021/03/11 20:56:47;;;;;;;;;;;8.40;99.90;;;7.49;84.03;94797.66;10330393;28;2048;-84
2021/03/11 21:01:50;;;;;;;;;;;9.20;99.90;;;7.50;81.39;94809.94;10332090;28;1995;-85
2021/03/11 21:06:52;;;;;;;;;;;8.40;99.90;;;7.40;81.94;94799.34;10321866;28;1994;-87
2021/03/11 21:12:03;;;;;;;;;;;8.40;99.90;;;7.40;80.88;94826.06;10326290;28;1986;-83
2021/03/11 21:17:05;;;;;;;;;;;8.30;99.90;;;7.35;80.11;94815.41;10333186;28;2210;-86
2021/03/11 21:22:08;;;;;;;;;;;9.10;99.90;;;7.49;77.39;94855.69;10338635;28;2127;-84
2021/03/11 21:27:12;;;;;;;;;;;8.40;99.90;;;7.49;77.31;94855.69;10318533;28;2034;-86
2021/03/11 21:32:14;;;;;;;;;;;9.30;99.90;;;7.39;78.31;94856.56;10315814;28;1838;-84
2021/03/11 21:37:16;;;;;;;;;;;8.40;99.90;;;7.40;79.29;94871.53;10312091;28;1975;-85
2021/03/11 21:42:28;;;;;;;;;;;10.00;99.90;;;7.37;77.81;94864.03;10320705;28;2126;-86
2021/03/11 21:47:30;;;;;;;;;;;9.10;99.90;;;7.40;78.14;94863.50;10319521;28;1948;-86
2021/03/11 21:52:32;;;;;;;;;;;9.40;99.90;;;7.41;78.22;94886.50;10305903;28;2081;-80
2021/03/11 21:57:34;;;;;;;;;;;8.40;99.90;;;7.50;77.51;94890.19;10346269;28;1989;-83
2021/03/11 22:02:36;;;;;;;;;;;8.40;99.90;;;7.61;77.50;94919.56;10321758;28;1992;-82
2021/03/11 22:07:38;;;;;;;;;;;8.50;99.90;;;7.64;77.44;94922.50;10328449;28;1747;-83
2021/03/11 22:12:48;;;;;;;;;;;8.60;99.90;;;7.56;80.44;94937.22;10301232;28;2005;-84
2021/03/11 22:17:49;;;;;;;;;;;8.60;99.90;;;7.36;81.80;94926.63;10316436;28;2033;-85
2021/03/11 22:22:51;;;;;;;;;;;8.50;99.90;;;7.27;83.20;94941.63;10326506;28;1996;-83
2021/03/11 22:27:53;;;;;;;;;;;8.30;99.90;;;7.25;82.97;94941.91;10316313;28;2050;-83
2021/03/11 22:32:55;;;;;;;;;;;8.60;99.90;;;7.23;82.71;94949.38;10343861;28;2062;-84
2021/03/11 22:37:57;;;;;;;;;;;8.20;99.90;;;7.23;81.93;94937.91;10325083;28;2005;-83
2021/03/11 22:43:14;;;;;;;;;;;8.20;99.90;;;7.22;82.50;94947.00;10314304;28;2234;-84
2021/03/11 22:48:16;;;;;;;;;;;8.20;99.90;;;7.21;82.50;94978.28;10322909;28;1884;-87
2021/03/11 22:53:18;;;;;;;;;;;8.20;99.90;;;7.25;82.00;94995.38;10316696;28;2117;-85
2021/03/11 22:58:20;;;;;;;;;;;8.40;99.90;;;7.04;78.67;95023.19;10309036;28;1996;-86
2021/03/11 23:03:21;;;;;;;;;;;8.20;99.90;;;6.33;80.21;95020.53;10301270;28;2045;-86
2021/03/11 23:08:23;;;;;;;;;;;7.60;99.90;;;5.69;82.06;95025.13;10280238;28;1831;-83
2021/03/11 23:13:33;;;;;;;;;;;7.00;99.90;;;5.18;84.40;95087.22;10301525;28;2052;-87
2021/03/11 23:18:35;;;;;;;;;;;6.40;99.90;;;4.92;85.99;95064.94;10317650;28;2188;-85
2021/03/11 23:23:37;;;;;;;;;;;6.00;99.90;;;4.71;85.87;95072.75;10298427;28;1952;-84
2021/03/11 23:28:38;;;;;;;;;;;6.00;99.90;;;4.30;87.13;95106.97;10288109;28;1945;-84
2021/03/11 23:33:40;;;;;;;;;;;6.90;99.90;;;3.89;89.21;95120.88;10293255;28;2323;-82